createdAt,value
2019-03-25T00:02:19.513Z,23.10
2019-03-25T00:04:49.236Z,26.80
2019-03-25T00:07:19.084Z,21.00
2019-03-25T00:09:48.773Z,20.57
2019-03-25T00:12:18.511Z,20.37
2019-03-25T00:14:48.265Z,22.33
2019-03-25T00:17:18.128Z,20.67
2019-03-25T00:19:47.809Z,16.37
2019-03-25T00:22:17.593Z,16.57
2019-03-25T00:24:47.311Z,24.73
2019-03-25T00:27:17.123Z,19.30
2019-03-25T00:29:46.896Z,7.07
2019-03-25T00:32:16.661Z,15.70
2019-03-25T00:34:46.432Z,10.23
2019-03-25T00:37:16.178Z,14.60
2019-03-25T00:39:45.961Z,16.63
2019-03-25T00:42:15.736Z,18.20
2019-03-25T00:44:45.444Z,10.33
2019-03-25T00:47:15.210Z,12.00
2019-03-25T00:49:44.914Z,17.80
2019-03-25T00:52:34.404Z,15.63
2019-03-25T00:55:04.993Z,11.60
2019-03-25T00:57:34.643Z,16.20
2019-03-25T01:00:06.433Z,10.93
2019-03-25T01:02:38.276Z,16.40
2019-03-25T01:05:09.325Z,16.07
2019-03-25T01:07:38.982Z,13.97
2019-03-25T01:10:09.358Z,18.83
2019-03-25T01:12:40.086Z,17.03
2019-03-25T01:15:11.539Z,21.13
2019-03-25T01:17:41.215Z,19.73
2019-03-25T01:20:12.363Z,12.87
2019-03-25T01:22:42.313Z,5.03
2019-03-25T01:25:12.801Z,5.73
2019-03-25T01:27:42.452Z,5.10
2019-03-25T01:30:13.225Z,6.33
2019-03-25T01:32:44.062Z,7.27
2019-03-25T01:35:13.785Z,2.17
2019-03-25T01:37:44.972Z,1.73
2019-03-25T01:40:15.141Z,2.73
2019-03-25T01:42:45.155Z,3.73
2019-03-25T01:45:16.370Z,2.67
2019-03-25T01:47:46.389Z,2.40
2019-03-25T01:50:16.021Z,7.27
2019-03-25T01:52:45.974Z,1.83
2019-03-25T01:55:15.623Z,2.50
2019-03-25T01:57:45.281Z,1.40
2019-03-25T02:03:18.044Z,4.57
2019-03-25T02:05:47.879Z,1.87
2019-03-25T02:08:17.573Z,7.27
2019-03-25T02:10:47.246Z,3.63
2019-03-25T02:13:17.080Z,4.80
2019-03-25T02:15:46.742Z,3.47
2019-03-25T02:18:16.496Z,5.10
2019-03-25T02:20:46.154Z,5.90
2019-03-25T02:23:15.836Z,4.43
2019-03-25T02:25:45.505Z,5.50
2019-03-25T02:28:15.195Z,4.87
2019-03-25T02:30:44.944Z,1.67
2019-03-25T02:33:14.646Z,4.43
2019-03-25T02:35:44.362Z,4.77
2019-03-25T02:38:14.099Z,4.60
2019-03-25T02:40:43.764Z,5.80
2019-03-25T02:43:13.486Z,3.83
2019-03-25T02:45:43.281Z,3.57
2019-03-25T02:48:12.944Z,2.10
2019-03-25T02:50:42.623Z,2.33
2019-03-25T02:53:12.311Z,1.47
2019-03-25T02:55:42.637Z,2.27
2019-03-25T02:58:12.532Z,1.00
2019-03-25T03:00:42.355Z,2.50
2019-03-25T03:03:12.228Z,0.70
2019-03-25T03:05:41.999Z,3.10
2019-03-25T03:08:11.859Z,1.97
2019-03-25T03:10:41.683Z,2.83
2019-03-25T03:13:11.325Z,3.67
2019-03-25T03:15:41.035Z,6.37
2019-03-25T03:18:10.714Z,3.97
2019-03-25T03:20:40.465Z,3.80
2019-03-25T03:23:10.144Z,1.43
2019-03-25T03:25:39.845Z,2.60
2019-03-25T03:28:09.526Z,1.80
2019-03-25T03:30:39.304Z,1.47
2019-03-25T03:33:08.944Z,2.30
2019-03-25T03:35:38.654Z,2.50
2019-03-25T03:38:08.319Z,1.83
2019-03-25T03:40:38.144Z,4.07
2019-03-25T03:43:07.956Z,1.70
2019-03-25T03:45:37.746Z,4.13
2019-03-25T03:48:07.504Z,3.50
2019-03-25T03:50:37.825Z,0.97
2019-03-25T03:53:07.639Z,0.80
2019-03-25T03:55:39.247Z,5.23
2019-03-25T03:58:09.276Z,3.77
2019-03-25T04:00:38.929Z,5.00
2019-03-25T04:03:08.660Z,4.83
2019-03-25T04:05:38.350Z,2.83
2019-03-25T04:08:08.026Z,7.03
2019-03-25T04:10:37.895Z,2.87
2019-03-25T04:13:07.626Z,3.23
2019-03-25T04:15:37.460Z,4.47
2019-03-25T04:18:07.126Z,6.90
2019-03-25T04:20:36.879Z,7.30
2019-03-25T04:23:06.616Z,6.27
2019-03-25T04:25:36.318Z,8.20
2019-03-25T04:28:06.029Z,8.33
2019-03-25T04:30:35.710Z,9.60
2019-03-25T04:33:05.405Z,6.03
2019-03-25T04:35:35.067Z,8.80
2019-03-25T04:38:04.717Z,8.87
2019-03-25T04:40:34.433Z,5.27
2019-03-25T04:43:04.188Z,8.87
2019-03-25T04:45:33.884Z,5.70
2019-03-25T04:48:03.550Z,8.53
2019-03-25T04:50:33.262Z,8.03
2019-03-25T04:53:02.953Z,10.83
2019-03-25T04:55:32.662Z,7.33
2019-03-25T04:58:02.322Z,13.80
2019-03-25T05:00:34.415Z,6.97
2019-03-25T05:03:04.159Z,9.90
2019-03-25T05:05:36.028Z,14.73
2019-03-25T05:08:05.512Z,13.80
2019-03-25T05:10:35.209Z,3.27
2019-03-25T05:13:04.943Z,14.40
2019-03-25T05:15:34.716Z,10.70
2019-03-25T05:18:04.455Z,14.60
2019-03-25T05:20:34.131Z,18.20
2019-03-25T05:23:03.881Z,10.43
2019-03-25T05:25:33.558Z,14.30
2019-03-25T05:28:03.377Z,10.57
2019-03-25T05:30:33.176Z,13.90
2019-03-25T05:33:02.880Z,13.33
2019-03-25T05:35:32.560Z,16.07
2019-03-25T05:38:02.260Z,15.80
2019-03-25T05:40:31.927Z,8.37
2019-03-25T05:43:01.607Z,9.93
2019-03-25T05:45:31.277Z,7.87
2019-03-25T05:48:00.973Z,15.70
2019-03-25T05:50:30.651Z,18.67
2019-03-25T05:53:00.342Z,25.23
2019-03-25T05:55:30.002Z,10.83
2019-03-25T05:57:59.777Z,11.87
2019-03-25T06:00:31.249Z,19.47
2019-03-25T06:03:06.073Z,11.93
2019-03-25T06:05:35.732Z,10.03
2019-03-25T06:08:05.412Z,10.33
2019-03-25T06:10:35.088Z,15.03
2019-03-25T06:13:04.921Z,13.03
2019-03-25T06:15:58.361Z,8.77
2019-03-25T06:18:28.037Z,11.47
2019-03-25T06:20:59.708Z,12.97
2019-03-25T06:23:29.532Z,22.67
2019-03-25T06:25:59.208Z,21.67
2019-03-25T06:28:28.883Z,19.80
2019-03-25T06:30:58.558Z,14.13
2019-03-25T06:33:28.258Z,11.30
2019-03-25T06:35:57.914Z,7.57
2019-03-25T06:38:27.593Z,10.80
2019-03-25T06:40:57.265Z,6.20
2019-03-25T06:43:26.953Z,10.23
2019-03-25T06:45:56.624Z,9.13
2019-03-25T06:48:26.306Z,5.10
2019-03-25T06:50:55.968Z,13.07
2019-03-25T06:53:25.666Z,10.90
2019-03-25T06:55:55.345Z,12.60
2019-03-25T06:58:25.031Z,12.93
2019-03-25T07:00:54.709Z,12.90
2019-03-25T07:03:24.459Z,14.73
2019-03-25T07:05:54.120Z,16.23
2019-03-25T07:08:23.819Z,11.97
2019-03-25T07:10:53.474Z,13.47
2019-03-25T07:13:23.709Z,14.00
2019-03-25T07:15:53.385Z,13.90
2019-03-25T07:18:23.229Z,15.00
2019-03-25T07:20:53.310Z,13.20
2019-03-25T07:23:23.019Z,14.53
2019-03-25T07:25:52.764Z,21.97
2019-03-25T07:28:22.453Z,15.87
2019-03-25T07:30:52.188Z,17.27
2019-03-25T07:33:21.874Z,12.00
2019-03-25T07:35:51.535Z,9.27
2019-03-25T07:38:21.236Z,10.93
2019-03-25T07:40:51.004Z,10.73
2019-03-25T07:43:20.690Z,14.77
2019-03-25T07:45:50.365Z,20.20
2019-03-25T07:48:20.127Z,16.47
2019-03-25T07:50:49.800Z,11.83
2019-03-25T07:53:19.496Z,10.20
2019-03-25T07:55:49.185Z,12.97
2019-03-25T07:58:18.889Z,9.77
2019-03-25T08:00:48.715Z,11.03
2019-03-25T08:03:18.380Z,16.07
2019-03-25T08:05:48.102Z,14.47
2019-03-25T08:08:17.823Z,13.17
2019-03-25T08:10:47.552Z,11.83
2019-03-25T08:13:17.375Z,15.73
2019-03-25T08:15:47.340Z,10.07
2019-03-25T08:18:17.080Z,17.90
2019-03-25T08:20:46.826Z,12.07
2019-03-25T08:23:16.523Z,19.40
2019-03-25T08:25:46.192Z,9.60
2019-03-25T08:28:15.887Z,12.00
2019-03-25T08:30:45.561Z,8.40
2019-03-25T08:33:15.252Z,13.90
2019-03-25T08:35:45.052Z,14.27
2019-03-25T08:38:14.740Z,6.73
2019-03-25T08:40:44.486Z,10.37
2019-03-25T08:43:14.178Z,7.67
2019-03-25T08:45:43.848Z,12.40
2019-03-25T08:48:13.523Z,8.07
2019-03-25T08:50:43.200Z,6.60
2019-03-25T08:53:12.882Z,9.43
2019-03-25T08:55:42.611Z,7.50
2019-03-25T08:58:12.617Z,11.63
2019-03-25T09:00:42.490Z,13.83
2019-03-25T09:03:12.182Z,9.13
2019-03-25T09:05:41.947Z,7.73
2019-03-25T09:08:11.697Z,12.60
2019-03-25T09:10:41.414Z,14.67
2019-03-25T09:13:11.092Z,13.27
2019-03-25T09:15:41.755Z,19.10
2019-03-25T09:18:11.563Z,11.43
2019-03-25T09:20:42.002Z,10.10
2019-03-25T09:23:11.675Z,12.73
2019-03-25T09:25:41.367Z,8.80
2019-03-25T09:28:11.091Z,9.07
2019-03-25T09:30:55.588Z,8.87
2019-03-25T09:33:25.368Z,14.63
2019-03-25T09:35:55.495Z,13.03
2019-03-25T09:38:25.178Z,7.90
2019-03-25T09:40:54.881Z,9.20
2019-03-25T09:43:24.542Z,7.47
2019-03-25T09:45:54.224Z,5.00
2019-03-25T09:48:23.882Z,8.10
2019-03-25T09:50:53.641Z,9.30
2019-03-25T09:53:23.371Z,9.13
2019-03-25T09:55:53.203Z,8.77
2019-03-25T09:58:22.873Z,11.60
2019-03-25T10:00:52.649Z,7.03
2019-03-25T10:03:22.382Z,10.23
2019-03-25T10:05:52.204Z,5.60
2019-03-25T10:08:21.853Z,8.63
2019-03-25T10:10:51.540Z,8.77
2019-03-25T10:13:21.194Z,9.00
2019-03-25T10:15:51.072Z,8.77
2019-03-25T10:18:20.747Z,8.83
2019-03-25T10:20:50.417Z,9.40
2019-03-25T10:23:20.070Z,11.20
2019-03-25T10:25:49.839Z,8.43
2019-03-25T10:28:19.479Z,12.17
2019-03-25T10:30:49.160Z,9.63
2019-03-25T10:33:18.814Z,8.73
2019-03-25T10:35:48.780Z,9.23
2019-03-25T10:38:19.711Z,8.77
2019-03-25T10:40:49.814Z,8.43
2019-03-25T10:43:19.468Z,12.33
2019-03-25T10:45:49.320Z,12.83
2019-03-25T10:48:18.997Z,16.83
2019-03-25T10:50:48.764Z,19.73
2019-03-25T10:53:18.436Z,8.73
2019-03-25T10:55:48.345Z,13.10
2019-03-25T10:58:18.048Z,14.13
2019-03-25T11:00:47.739Z,12.63
2019-03-25T11:03:17.403Z,17.73
2019-03-25T11:05:47.229Z,21.10
2019-03-25T11:08:16.969Z,21.73
2019-03-25T11:10:46.743Z,34.13
2019-03-25T11:13:16.411Z,25.87
2019-03-25T11:15:46.134Z,16.50
2019-03-25T11:18:15.862Z,13.77
2019-03-25T11:20:45.546Z,13.27
2019-03-25T11:23:15.285Z,14.37
2019-03-25T11:25:44.967Z,8.87
2019-03-25T11:28:14.642Z,6.50
2019-03-25T11:30:52.301Z,7.87
2019-03-25T11:33:23.010Z,6.90
2019-03-25T11:35:52.931Z,7.67
2019-03-25T11:38:22.747Z,7.37
2019-03-25T11:40:52.498Z,10.63
2019-03-25T11:43:22.236Z,4.03
2019-03-25T11:45:52.182Z,4.03
2019-03-25T11:48:21.907Z,3.27
2019-03-25T11:50:51.658Z,6.50
2019-03-25T11:53:21.387Z,2.63
2019-03-25T11:55:51.163Z,2.07
2019-03-25T11:58:20.868Z,1.37
2019-03-25T12:00:50.542Z,3.23
2019-03-25T12:03:20.284Z,1.30
2019-03-25T12:05:50.102Z,2.00
2019-03-25T12:08:19.778Z,5.73
2019-03-25T12:10:49.545Z,1.47
2019-03-25T12:13:19.223Z,2.90
2019-03-25T12:15:49.112Z,7.53
2019-03-25T12:18:18.779Z,4.83
2019-03-25T12:20:48.469Z,3.90
2019-03-25T12:23:25.927Z,3.03
2019-03-25T12:25:49.737Z,5.50
2019-03-25T12:28:20.761Z,7.40
2019-03-25T12:30:51.782Z,7.83
2019-03-25T12:33:21.504Z,8.50
2019-03-25T12:35:51.362Z,5.27
2019-03-25T12:38:21.172Z,5.00
2019-03-25T12:40:50.873Z,4.10
2019-03-25T12:43:20.613Z,5.10
2019-03-25T12:45:50.362Z,8.03
2019-03-25T12:48:20.043Z,5.13
2019-03-25T12:50:49.785Z,12.50
2019-03-25T12:53:19.485Z,8.30
2019-03-25T12:55:49.202Z,6.33
2019-03-25T12:58:18.889Z,7.87
2019-03-25T13:00:48.563Z,6.80
2019-03-25T13:03:18.231Z,9.77
2019-03-25T13:05:48.055Z,5.43
2019-03-25T13:08:17.827Z,8.07
2019-03-25T13:10:47.561Z,3.80
2019-03-25T13:13:17.313Z,4.30
2019-03-25T13:15:47.181Z,5.73
2019-03-25T13:18:16.990Z,8.23
2019-03-25T13:20:46.670Z,11.33
2019-03-25T13:23:16.497Z,6.97
2019-03-25T13:25:46.163Z,7.23
2019-03-25T13:28:15.849Z,6.33
2019-03-25T13:30:45.598Z,4.37
2019-03-25T13:33:15.272Z,9.63
2019-03-25T13:35:44.931Z,6.77
2019-03-25T13:38:14.626Z,6.13
2019-03-25T13:40:44.354Z,5.83
2019-03-25T13:43:14.043Z,5.73
2019-03-25T13:45:43.718Z,8.57
2019-03-25T13:48:13.382Z,7.07
2019-03-25T13:50:43.123Z,4.23
2019-03-25T13:53:12.822Z,10.47
2019-03-25T13:55:42.478Z,4.83
2019-03-25T13:58:12.165Z,4.13
2019-03-25T14:00:42.486Z,6.77
2019-03-25T14:03:12.254Z,4.80
2019-03-25T14:05:41.950Z,6.87
2019-03-25T14:08:11.645Z,3.67
2019-03-25T14:10:41.404Z,6.80
2019-03-25T14:13:11.092Z,5.20
2019-03-25T14:15:40.881Z,5.17
2019-03-25T14:18:10.558Z,4.87
2019-03-25T14:20:40.328Z,3.77
2019-03-25T14:23:10.006Z,3.60
2019-03-25T14:25:39.679Z,2.63
2019-03-25T14:28:09.362Z,8.90
2019-03-25T14:30:39.041Z,2.70
2019-03-25T14:33:08.871Z,4.00
2019-03-25T14:35:38.545Z,5.03
2019-03-25T14:38:08.207Z,6.10
2019-03-25T14:40:40.662Z,3.37
2019-03-25T14:43:10.412Z,2.23
2019-03-25T14:45:40.065Z,1.97
2019-03-25T14:48:09.734Z,3.93
2019-03-25T14:50:39.484Z,2.73
2019-03-25T14:53:09.319Z,5.73
2019-03-25T14:55:38.997Z,5.23
2019-03-25T14:58:08.680Z,2.57
2019-03-25T15:00:38.348Z,3.47
2019-03-25T15:03:08.110Z,5.83
2019-03-25T15:05:37.794Z,7.53
2019-03-25T15:08:07.475Z,5.57
2019-03-25T15:10:37.216Z,4.63
2019-03-25T15:13:06.971Z,4.37
2019-03-25T15:15:37.739Z,6.97
2019-03-25T15:18:15.174Z,4.63
2019-03-25T15:20:38.771Z,5.10
2019-03-25T15:23:08.450Z,4.47
2019-03-25T15:25:38.121Z,7.40
2019-03-25T15:28:07.804Z,3.23
2019-03-25T15:30:37.469Z,5.13
2019-03-25T15:33:07.224Z,6.07
2019-03-25T15:35:36.892Z,5.73
2019-03-25T15:38:06.635Z,4.33
2019-03-25T15:40:36.443Z,13.17
2019-03-25T15:43:06.320Z,5.83
2019-03-25T15:45:35.993Z,6.03
2019-03-25T15:48:05.794Z,4.93
2019-03-25T15:50:35.561Z,4.27
2019-03-25T15:53:05.269Z,5.53
2019-03-25T15:55:35.029Z,3.83
2019-03-25T15:58:04.779Z,2.27
2019-03-25T16:00:34.474Z,1.33
2019-03-25T16:03:04.201Z,2.07
2019-03-25T16:05:33.992Z,4.77
2019-03-25T16:08:03.658Z,3.80
2019-03-25T16:10:33.402Z,2.50
2019-03-25T16:13:03.119Z,2.87
2019-03-25T16:15:36.346Z,1.57
2019-03-25T16:18:07.550Z,1.70
2019-03-25T16:20:37.298Z,2.53
2019-03-25T16:23:07.120Z,5.93
2019-03-25T16:25:36.809Z,3.43
2019-03-25T16:28:06.531Z,1.93
2019-03-25T16:30:36.294Z,2.40
2019-03-25T16:33:05.982Z,3.50
2019-03-25T16:35:35.672Z,2.83
2019-03-25T16:38:06.309Z,5.23
2019-03-25T16:40:35.980Z,3.17
2019-03-25T16:43:05.724Z,1.40
2019-03-25T16:45:35.570Z,3.00
2019-03-25T16:48:05.245Z,4.40
2019-03-25T16:50:34.947Z,2.50
2019-03-25T16:53:04.761Z,4.77
2019-03-25T16:55:34.451Z,1.63
2019-03-25T16:58:04.135Z,8.63
2019-03-25T17:00:33.810Z,3.77
2019-03-25T17:03:03.650Z,4.10
2019-03-25T17:05:33.324Z,4.47
2019-03-25T17:08:03.009Z,5.70
2019-03-25T17:10:32.705Z,2.73
2019-03-25T17:13:02.366Z,3.53
2019-03-25T17:15:32.122Z,4.47
2019-03-25T17:18:01.829Z,4.27
2019-03-25T17:20:31.616Z,4.43
2019-03-25T17:23:01.286Z,5.93
2019-03-25T17:25:30.977Z,4.63
2019-03-25T17:28:00.743Z,2.07
2019-03-25T17:30:30.512Z,4.57
2019-03-25T17:33:00.249Z,6.10
2019-03-25T17:35:30.010Z,6.13
2019-03-25T17:37:59.794Z,4.03
2019-03-25T17:40:29.582Z,2.40
2019-03-25T17:42:59.287Z,5.07
2019-03-25T17:45:29.039Z,4.30
2019-03-25T17:47:58.786Z,5.40
2019-03-25T17:50:28.567Z,5.77
2019-03-25T17:52:58.375Z,6.37
2019-03-25T17:55:28.076Z,5.40
2019-03-25T17:57:57.755Z,6.60
2019-03-25T18:00:48.773Z,7.27
2019-03-25T18:03:18.539Z,5.20
2019-03-25T18:05:48.233Z,4.00
2019-03-25T18:08:17.909Z,4.83
2019-03-25T18:10:47.606Z,5.27
2019-03-25T18:13:22.374Z,5.17
2019-03-25T18:15:48.738Z,3.87
2019-03-25T18:18:18.403Z,4.07
2019-03-25T18:20:48.115Z,3.97
2019-03-25T18:23:17.794Z,7.77
2019-03-25T18:25:47.552Z,9.60
2019-03-25T18:28:17.220Z,8.13
2019-03-25T18:30:46.989Z,12.27
2019-03-25T18:33:16.677Z,10.80
2019-03-25T18:35:47.986Z,5.83
2019-03-25T18:38:17.665Z,7.67
2019-03-25T18:40:47.500Z,7.23
2019-03-25T18:43:17.179Z,9.07
2019-03-25T18:45:46.943Z,7.13
2019-03-25T18:48:16.879Z,6.57
2019-03-25T18:50:46.869Z,5.60
2019-03-25T18:53:16.691Z,6.30
2019-03-25T18:55:46.462Z,5.80
2019-03-25T18:58:17.882Z,5.77
2019-03-25T19:00:47.620Z,5.67
2019-03-25T19:03:18.576Z,6.17
2019-03-25T19:05:48.549Z,10.33
2019-03-25T19:08:20.892Z,7.67
2019-03-25T19:10:52.416Z,9.70
2019-03-25T19:13:32.924Z,5.90
2019-03-25T19:16:04.331Z,5.07
2019-03-25T19:18:34.270Z,5.73
2019-03-25T19:21:03.836Z,7.43
2019-03-25T19:23:33.982Z,5.57
2019-03-25T19:26:03.891Z,3.83
2019-03-25T19:28:33.778Z,7.97
2019-03-25T19:31:04.635Z,11.43
2019-03-25T19:33:34.414Z,26.90
2019-03-25T19:36:04.354Z,37.90
2019-03-25T19:38:34.044Z,32.00
2019-03-25T19:41:03.817Z,22.43
2019-03-25T19:43:33.571Z,22.93
2019-03-25T19:46:03.347Z,17.77
2019-03-25T19:48:33.011Z,9.43
2019-03-25T19:51:07.128Z,10.37
2019-03-25T19:53:40.492Z,12.37
2019-03-25T19:56:13.283Z,22.80
2019-03-25T19:58:49.821Z,14.60
2019-03-25T20:01:24.928Z,14.63
2019-03-25T20:03:54.668Z,12.43
2019-03-25T20:06:26.399Z,14.07
2019-03-25T20:08:56.314Z,10.23
2019-03-25T20:11:33.058Z,12.33
2019-03-25T20:14:04.541Z,16.80
2019-03-25T20:16:34.294Z,11.50
2019-03-25T20:19:04.247Z,11.17
2019-03-25T20:21:34.239Z,23.37
2019-03-25T20:24:04.252Z,16.27
2019-03-25T20:26:38.407Z,28.13
2019-03-25T20:29:09.797Z,11.40
2019-03-25T20:31:39.558Z,12.80
2019-03-25T20:34:11.217Z,13.07
2019-03-25T20:36:40.912Z,12.00
2019-03-25T20:39:11.158Z,10.07
2019-03-25T20:41:41.893Z,14.77
2019-03-25T20:44:11.761Z,14.33
2019-03-25T20:46:41.886Z,14.87
2019-03-25T20:49:11.766Z,10.70
2019-03-25T20:51:41.738Z,15.53
2019-03-25T20:54:11.631Z,14.80
2019-03-25T20:56:41.496Z,12.93
2019-03-25T20:59:13.124Z,9.83
2019-03-25T21:01:43.180Z,9.97
2019-03-25T21:04:16.008Z,8.57
2019-03-25T21:06:46.061Z,16.40
2019-03-25T21:09:16.037Z,14.90
2019-03-25T21:11:45.938Z,13.90
2019-03-25T21:14:15.738Z,10.00
2019-03-25T21:16:45.590Z,10.40
2019-03-25T21:19:15.423Z,15.63
2019-03-25T21:21:45.403Z,12.73
2019-03-25T21:24:15.207Z,10.37
2019-03-25T21:26:45.084Z,8.50
2019-03-25T21:29:14.932Z,13.33
2019-03-25T21:31:44.869Z,13.17
2019-03-25T21:34:14.765Z,18.10
2019-03-25T21:36:44.610Z,9.60
2019-03-25T21:39:14.355Z,18.70
2019-03-25T21:41:44.303Z,14.33
2019-03-25T21:44:14.063Z,16.43
2019-03-25T21:46:43.884Z,19.07
2019-03-25T21:49:13.669Z,21.53
2019-03-25T21:51:43.499Z,15.53
2019-03-25T21:54:13.294Z,14.40
2019-03-25T21:56:43.279Z,12.97
2019-03-25T21:59:13.119Z,24.27
2019-03-25T22:01:43.071Z,17.77
2019-03-25T22:04:12.833Z,12.03
2019-03-25T22:06:42.670Z,9.70
2019-03-25T22:09:12.493Z,13.00
2019-03-25T22:11:42.465Z,17.17
2019-03-25T22:14:12.251Z,17.70
2019-03-25T22:16:42.058Z,11.40
2019-03-25T22:19:11.779Z,10.13
2019-03-25T22:21:41.540Z,14.40
2019-03-25T22:24:11.302Z,12.83
2019-03-25T22:26:41.032Z,9.60
2019-03-25T22:29:10.857Z,18.10
2019-03-25T22:31:40.652Z,16.93
2019-03-25T22:34:10.555Z,7.67
2019-03-25T22:36:40.288Z,13.87
2019-03-25T22:39:10.027Z,16.93
2019-03-25T22:41:39.828Z,17.43
2019-03-25T22:44:09.587Z,15.63
2019-03-25T22:46:39.254Z,12.73
2019-03-25T22:49:09.189Z,13.77
2019-03-25T22:51:38.864Z,18.57
2019-03-25T22:54:08.618Z,13.63
2019-03-25T22:56:38.296Z,19.77
2019-03-25T22:59:07.987Z,10.17
2019-03-25T23:01:37.730Z,16.33
2019-03-25T23:04:07.414Z,13.53
2019-03-25T23:06:38.624Z,19.17
2019-03-25T23:09:09.075Z,13.83
2019-03-25T23:11:38.744Z,10.07
2019-03-25T23:14:08.472Z,13.67
2019-03-25T23:16:39.096Z,14.53
2019-03-25T23:19:08.869Z,17.40
2019-03-25T23:21:38.533Z,15.23
2019-03-25T23:24:08.294Z,13.37
2019-03-25T23:26:40.906Z,15.73
2019-03-25T23:29:10.589Z,14.83
2019-03-25T23:31:40.267Z,17.07
2019-03-25T23:34:09.931Z,13.23
2019-03-25T23:36:39.679Z,23.00
2019-03-25T23:39:09.372Z,14.67
2019-03-25T23:41:39.133Z,19.13
2019-03-25T23:44:08.802Z,24.33
2019-03-25T23:46:38.486Z,14.30
2019-03-25T23:49:08.150Z,15.83
2019-03-25T23:51:37.839Z,22.03
2019-03-25T23:54:14.548Z,26.53
2019-03-25T23:56:44.313Z,26.07
2019-03-25T23:59:14.122Z,15.20
